createdAt,value
2024-03-31T00:00:44.849Z,956.38
2024-03-31T00:01:44.825Z,956.27
2024-03-31T00:02:44.817Z,956.14
2024-03-31T00:03:44.823Z,956.01
2024-03-31T00:04:44.788Z,955.94
2024-03-31T00:05:44.787Z,955.77
2024-03-31T00:06:44.763Z,955.73
2024-03-31T00:07:44.745Z,955.65
2024-03-31T00:08:44.735Z,955.64
2024-03-31T00:09:44.721Z,955.66
2024-03-31T00:10:44.707Z,955.55
2024-03-31T00:11:44.697Z,955.79
2024-03-31T00:12:44.681Z,955.69
2024-03-31T00:13:44.693Z,955.72
2024-03-31T00:14:44.661Z,955.78
2024-03-31T00:15:44.633Z,955.87
2024-03-31T00:16:44.634Z,955.94
2024-03-31T00:17:44.614Z,955.88
2024-03-31T00:18:44.603Z,955.97
2024-03-31T00:19:44.586Z,955.89
2024-03-31T00:20:44.568Z,955.89
2024-03-31T00:21:44.549Z,955.87
2024-03-31T00:22:44.538Z,955.90
2024-03-31T00:23:44.532Z,955.86
2024-03-31T00:24:44.512Z,955.91
2024-03-31T00:25:44.506Z,955.88
2024-03-31T00:26:44.483Z,955.92
2024-03-31T00:27:44.481Z,955.96
2024-03-31T00:28:44.459Z,956.04
2024-03-31T00:29:44.454Z,955.95
2024-03-31T00:30:44.424Z,955.98
2024-03-31T00:31:44.413Z,956.02
2024-03-31T00:32:44.399Z,956.00
2024-03-31T00:33:44.381Z,955.99
2024-03-31T00:34:44.371Z,956.07
2024-03-31T00:35:44.362Z,956.02
2024-03-31T00:36:44.347Z,956.04
2024-03-31T00:37:44.324Z,956.07
2024-03-31T00:38:44.315Z,955.99
2024-03-31T00:39:44.298Z,955.96
2024-03-31T00:40:44.288Z,955.97
2024-03-31T00:41:44.287Z,955.90
2024-03-31T00:42:44.258Z,955.86
2024-03-31T00:43:44.251Z,955.89
2024-03-31T00:44:44.232Z,955.84
2024-03-31T00:45:44.255Z,955.73
2024-03-31T00:46:44.206Z,955.64
2024-03-31T00:47:44.213Z,955.58
2024-03-31T00:48:44.177Z,955.56
2024-03-31T00:49:44.162Z,955.58
2024-03-31T00:50:44.150Z,955.59
2024-03-31T00:51:44.131Z,955.60
2024-03-31T00:52:44.120Z,955.64
2024-03-31T00:53:44.103Z,955.66
2024-03-31T00:54:44.094Z,955.61
2024-03-31T00:55:44.075Z,955.68
2024-03-31T00:56:44.066Z,955.71
2024-03-31T00:57:44.047Z,955.70
2024-03-31T00:58:44.041Z,955.75
2024-03-31T00:59:44.030Z,955.78
2024-03-31T01:00:44.011Z,955.82
2024-03-31T01:01:44.105Z,955.82
2024-03-31T01:02:43.980Z,955.89
2024-03-31T01:03:43.965Z,955.85
2024-03-31T01:04:43.954Z,955.82
2024-03-31T01:05:43.939Z,955.88
2024-03-31T01:06:43.922Z,955.84
2024-03-31T01:07:43.907Z,955.80
2024-03-31T01:08:43.899Z,955.75
2024-03-31T01:09:43.880Z,955.71
2024-03-31T01:10:43.868Z,955.69
2024-03-31T01:11:43.852Z,955.69
2024-03-31T01:12:43.838Z,955.64
2024-03-31T01:13:43.822Z,955.68
2024-03-31T01:14:43.812Z,955.65
2024-03-31T01:15:43.793Z,955.59
2024-03-31T01:16:43.786Z,955.61
2024-03-31T01:17:43.794Z,955.59
2024-03-31T01:18:43.753Z,955.56
2024-03-31T01:19:43.738Z,955.56
2024-03-31T01:20:43.726Z,955.55
2024-03-31T01:21:43.712Z,955.51
2024-03-31T01:22:43.706Z,955.51
2024-03-31T01:23:43.685Z,955.48
2024-03-31T01:24:43.671Z,955.49
2024-03-31T01:25:43.654Z,955.46
2024-03-31T01:26:43.644Z,955.50
2024-03-31T01:27:43.627Z,955.45
2024-03-31T01:28:43.614Z,955.44
2024-03-31T01:30:43.597Z,955.34
2024-03-31T01:31:43.568Z,955.27
2024-03-31T01:32:43.555Z,955.28
2024-03-31T01:33:43.558Z,955.24
2024-03-31T01:34:43.526Z,955.24
2024-03-31T01:35:43.520Z,955.26
2024-03-31T01:36:43.507Z,955.21
2024-03-31T01:37:43.480Z,955.23
2024-03-31T01:38:51.231Z,955.19
2024-03-31T01:39:43.455Z,955.15
2024-03-31T01:40:43.452Z,955.13
2024-03-31T01:41:43.438Z,955.08
2024-03-31T01:42:43.409Z,954.92
2024-03-31T01:43:43.415Z,954.96
2024-03-31T01:44:43.387Z,954.93
2024-03-31T01:45:43.366Z,954.91
2024-03-31T01:46:43.381Z,954.93
2024-03-31T01:47:43.372Z,954.89
2024-03-31T01:48:43.324Z,954.95
2024-03-31T01:49:43.323Z,954.94
2024-03-31T01:50:43.293Z,954.96
2024-03-31T01:51:43.282Z,954.99
2024-03-31T01:52:43.264Z,955.00
2024-03-31T01:53:43.453Z,955.08
2024-03-31T01:54:43.237Z,955.09
2024-03-31T01:55:43.222Z,955.07
2024-03-31T01:56:43.207Z,955.07
2024-03-31T01:57:43.198Z,955.10
2024-03-31T01:58:43.183Z,955.05
2024-03-31T01:59:43.170Z,955.04
2024-03-31T02:00:43.148Z,955.01
2024-03-31T02:01:43.143Z,954.98
2024-03-31T02:02:43.120Z,954.94
2024-03-31T02:03:43.108Z,954.92
2024-03-31T02:04:43.093Z,954.87
2024-03-31T02:05:43.088Z,954.82
2024-03-31T02:06:43.068Z,954.79
2024-03-31T02:07:43.054Z,954.75
2024-03-31T02:08:43.035Z,954.72
2024-03-31T02:09:43.021Z,954.71
2024-03-31T02:10:43.028Z,954.70
2024-03-31T02:11:42.994Z,954.72
2024-03-31T02:12:42.977Z,954.66
2024-03-31T02:13:42.974Z,954.71
2024-03-31T02:14:42.947Z,954.67
2024-03-31T02:15:42.936Z,954.60
2024-03-31T02:16:42.923Z,954.60
2024-03-31T02:17:42.908Z,954.57
2024-03-31T02:18:42.887Z,954.55
2024-03-31T02:19:42.879Z,954.56
2024-03-31T02:20:42.867Z,954.50
2024-03-31T02:21:42.859Z,954.51
2024-03-31T02:22:42.844Z,954.55
2024-03-31T02:23:42.824Z,954.62
2024-03-31T02:24:42.809Z,954.65
2024-03-31T02:25:42.798Z,954.67
2024-03-31T02:26:42.783Z,954.63
2024-03-31T02:27:42.778Z,954.61
2024-03-31T02:28:42.757Z,954.64
2024-03-31T02:29:42.740Z,954.64
2024-03-31T02:31:42.703Z,954.65
2024-03-31T02:32:42.693Z,954.64
2024-03-31T02:33:42.682Z,954.65
2024-03-31T02:34:42.665Z,954.67
2024-03-31T02:35:42.660Z,954.69
2024-03-31T02:36:42.655Z,954.71
2024-03-31T02:37:42.630Z,954.72
2024-03-31T02:38:42.608Z,954.71
2024-03-31T02:39:42.589Z,954.72
2024-03-31T02:40:42.590Z,954.74
2024-03-31T02:41:42.563Z,954.79
2024-03-31T02:42:42.555Z,954.81
2024-03-31T02:43:42.547Z,954.87
2024-03-31T02:44:42.539Z,954.89
2024-03-31T02:45:42.543Z,954.90
2024-03-31T02:46:42.513Z,954.95
2024-03-31T02:47:42.516Z,954.91
2024-03-31T02:49:42.463Z,954.93
2024-03-31T02:50:42.435Z,954.93
2024-03-31T02:51:42.444Z,954.93
2024-03-31T02:52:42.422Z,954.98
2024-03-31T02:53:42.428Z,955.00
2024-03-31T02:54:42.386Z,955.00
2024-03-31T02:55:42.371Z,955.01
2024-03-31T02:56:42.355Z,955.03
2024-03-31T02:57:42.432Z,955.06
2024-03-31T02:58:42.321Z,955.13
2024-03-31T02:59:42.313Z,955.15
2024-03-31T03:00:42.322Z,955.20
2024-03-31T03:01:42.276Z,955.19
2024-03-31T03:02:49.222Z,955.27
2024-03-31T03:03:42.258Z,955.31
2024-03-31T03:04:42.240Z,955.32
2024-03-31T03:05:42.219Z,955.34
2024-03-31T03:06:42.236Z,955.31
2024-03-31T03:07:42.192Z,955.31
2024-03-31T03:08:42.180Z,955.33
2024-03-31T03:09:42.199Z,955.29
2024-03-31T03:10:42.151Z,955.33
2024-03-31T03:11:42.154Z,955.36
2024-03-31T03:12:42.140Z,955.36
2024-03-31T03:13:42.108Z,955.37
2024-03-31T03:14:42.103Z,955.41
2024-03-31T03:15:42.110Z,955.40
2024-03-31T03:16:42.064Z,955.40
2024-03-31T03:17:42.048Z,955.36
2024-03-31T03:18:42.068Z,955.36
2024-03-31T03:19:42.022Z,955.39
2024-03-31T03:20:42.007Z,955.41
2024-03-31T03:21:42.033Z,955.43
2024-03-31T03:22:41.981Z,955.46
2024-03-31T03:23:41.966Z,955.50
2024-03-31T03:24:42.028Z,955.53
2024-03-31T03:25:41.946Z,955.55
2024-03-31T03:26:41.920Z,955.51
2024-03-31T03:27:41.917Z,955.48
2024-03-31T03:28:41.894Z,955.43
2024-03-31T03:29:41.879Z,955.41
2024-03-31T03:30:41.899Z,955.33
2024-03-31T03:31:41.847Z,955.31
2024-03-31T03:32:41.854Z,955.28
2024-03-31T03:33:41.886Z,955.31
2024-03-31T03:34:41.824Z,955.34
2024-03-31T03:35:41.788Z,955.34
2024-03-31T03:36:41.798Z,955.31
2024-03-31T03:37:41.760Z,955.30
2024-03-31T03:38:41.776Z,955.33
2024-03-31T03:39:41.757Z,955.36
2024-03-31T03:40:41.723Z,955.38
2024-03-31T03:41:41.719Z,955.37
2024-03-31T03:42:41.727Z,955.36
2024-03-31T03:43:41.676Z,955.28
2024-03-31T03:44:41.663Z,955.24
2024-03-31T03:45:41.658Z,955.20
2024-03-31T03:46:41.639Z,955.16
2024-03-31T03:47:41.618Z,955.15
2024-03-31T03:48:41.622Z,955.14
2024-03-31T03:49:41.590Z,955.15
2024-03-31T03:50:41.575Z,955.14
2024-03-31T03:51:41.592Z,955.15
2024-03-31T03:52:41.561Z,955.17
2024-03-31T03:53:41.531Z,955.17
2024-03-31T03:54:41.535Z,955.16
2024-03-31T03:55:41.501Z,955.15
2024-03-31T03:56:41.490Z,955.14
2024-03-31T03:57:41.486Z,955.10
2024-03-31T03:58:41.469Z,955.08
2024-03-31T03:59:41.446Z,955.02
2024-03-31T04:00:41.489Z,954.99
2024-03-31T04:01:41.416Z,954.97
2024-03-31T04:02:41.413Z,954.95
2024-03-31T04:03:41.387Z,954.88
2024-03-31T04:04:41.376Z,954.84
2024-03-31T04:05:41.361Z,954.75
2024-03-31T04:06:41.354Z,954.69
2024-03-31T04:07:41.329Z,954.68
2024-03-31T04:08:41.318Z,954.61
2024-03-31T04:09:41.319Z,954.56
2024-03-31T04:10:41.306Z,954.50
2024-03-31T04:11:41.273Z,954.53
2024-03-31T04:12:41.272Z,954.48
2024-03-31T04:13:41.258Z,954.42
2024-03-31T04:14:41.231Z,954.36
2024-03-31T04:15:41.218Z,954.32
2024-03-31T04:16:41.201Z,954.31
2024-03-31T04:17:41.185Z,954.31
2024-03-31T04:18:41.214Z,954.32
2024-03-31T04:19:41.164Z,954.44
2024-03-31T04:20:41.143Z,954.51
2024-03-31T04:21:41.141Z,954.59
2024-03-31T04:22:41.120Z,954.65
2024-03-31T04:23:41.098Z,954.73
2024-03-31T04:24:41.099Z,954.66
2024-03-31T04:25:41.068Z,954.70
2024-03-31T04:26:41.057Z,954.73
2024-03-31T04:27:41.048Z,954.76
2024-03-31T04:28:41.032Z,954.76
2024-03-31T04:29:41.019Z,954.78
2024-03-31T04:30:41.021Z,954.83
2024-03-31T04:31:40.980Z,954.87
2024-03-31T04:32:40.970Z,954.90
2024-03-31T04:33:40.972Z,954.88
2024-03-31T04:34:40.941Z,954.86
2024-03-31T04:35:40.922Z,954.82
2024-03-31T04:36:40.921Z,954.79
2024-03-31T04:37:40.894Z,954.74
2024-03-31T04:38:40.882Z,954.76
2024-03-31T04:39:40.875Z,954.71
2024-03-31T04:40:40.859Z,954.74
2024-03-31T04:41:40.838Z,954.68
2024-03-31T04:42:40.859Z,954.63
2024-03-31T04:43:40.807Z,954.62
2024-03-31T04:44:40.794Z,954.59
2024-03-31T04:45:40.843Z,954.58
2024-03-31T04:46:40.764Z,954.51
2024-03-31T04:47:40.747Z,954.54
2024-03-31T04:48:40.744Z,954.52
2024-03-31T04:49:40.719Z,954.52
2024-03-31T04:50:40.705Z,954.53
2024-03-31T04:51:40.697Z,954.43
2024-03-31T04:52:40.695Z,954.44
2024-03-31T04:53:40.665Z,954.35
2024-03-31T04:54:40.669Z,954.32
2024-03-31T04:55:40.635Z,954.27
2024-03-31T04:56:40.669Z,954.26
2024-03-31T04:57:40.608Z,954.26
2024-03-31T04:58:40.592Z,954.25
2024-03-31T04:59:40.576Z,954.26
2024-03-31T05:00:40.613Z,954.26
2024-03-31T05:01:40.554Z,954.28
2024-03-31T05:02:40.570Z,954.24
2024-03-31T05:03:40.525Z,954.24
2024-03-31T05:04:40.504Z,954.21
2024-03-31T05:05:40.487Z,954.17
2024-03-31T05:06:40.497Z,954.19
2024-03-31T05:07:40.466Z,954.25
2024-03-31T05:08:40.456Z,954.23
2024-03-31T05:09:40.471Z,954.18
2024-03-31T05:10:40.465Z,954.18
2024-03-31T05:11:40.402Z,954.23
2024-03-31T05:12:40.393Z,954.21
2024-03-31T05:13:40.372Z,954.27
2024-03-31T05:14:40.363Z,954.25
2024-03-31T05:15:40.401Z,954.26
2024-03-31T05:16:40.362Z,954.21
2024-03-31T05:17:40.323Z,954.17
2024-03-31T05:18:40.307Z,954.21
2024-03-31T05:19:40.287Z,954.20
2024-03-31T05:20:40.274Z,954.21
2024-03-31T05:21:40.255Z,954.17
2024-03-31T05:22:40.244Z,954.11
2024-03-31T05:23:40.227Z,954.10
2024-03-31T05:24:40.217Z,954.12
2024-03-31T05:25:40.205Z,954.06
2024-03-31T05:26:40.186Z,954.06
2024-03-31T05:27:40.220Z,954.05
2024-03-31T05:28:48.780Z,954.05
2024-03-31T05:29:40.140Z,954.08
2024-03-31T05:30:40.170Z,954.09
2024-03-31T05:31:40.120Z,954.10
2024-03-31T05:32:40.109Z,954.10
2024-03-31T05:33:40.151Z,954.10
2024-03-31T05:34:40.087Z,954.09
2024-03-31T05:35:40.057Z,954.04
2024-03-31T05:36:40.066Z,954.02
2024-03-31T05:37:40.072Z,953.96
2024-03-31T05:38:40.016Z,954.02
2024-03-31T05:39:40.028Z,953.99
2024-03-31T05:40:39.987Z,954.01
2024-03-31T05:41:39.970Z,954.03
2024-03-31T05:42:39.965Z,954.06
2024-03-31T05:43:39.949Z,954.08
2024-03-31T05:44:39.933Z,954.00
2024-03-31T05:45:39.995Z,953.98
2024-03-31T05:46:39.926Z,953.87
2024-03-31T05:47:39.902Z,953.82
2024-03-31T05:48:39.879Z,953.82
2024-03-31T05:49:39.870Z,953.81
2024-03-31T05:50:39.848Z,953.81
2024-03-31T05:51:39.827Z,953.77
2024-03-31T05:52:39.816Z,953.74
2024-03-31T05:53:39.801Z,953.74
2024-03-31T05:54:39.803Z,953.71
2024-03-31T05:55:40.214Z,953.74
2024-03-31T05:56:39.759Z,953.71
2024-03-31T05:57:39.761Z,953.68
2024-03-31T05:58:39.732Z,953.63
2024-03-31T05:59:39.718Z,953.64
2024-03-31T06:00:39.704Z,953.64
2024-03-31T06:01:39.688Z,953.65
2024-03-31T06:02:39.676Z,953.62
2024-03-31T06:03:39.659Z,953.62
2024-03-31T06:04:39.646Z,953.63
2024-03-31T06:05:39.666Z,953.63
2024-03-31T06:06:39.670Z,953.64
2024-03-31T06:07:39.627Z,953.63
2024-03-31T06:08:39.589Z,953.65
2024-03-31T06:09:39.573Z,953.67
2024-03-31T06:10:40.833Z,953.61
2024-03-31T06:11:39.546Z,953.63
2024-03-31T06:12:39.535Z,953.60
2024-03-31T06:13:39.516Z,953.59
2024-03-31T06:14:39.510Z,953.58
2024-03-31T06:15:39.496Z,953.56
2024-03-31T06:16:39.477Z,953.60
2024-03-31T06:17:39.466Z,953.65
2024-03-31T06:18:39.466Z,953.66
2024-03-31T06:19:39.432Z,953.66
2024-03-31T06:20:39.421Z,953.59
2024-03-31T06:21:39.420Z,953.58
2024-03-31T06:22:39.395Z,953.45
2024-03-31T06:23:39.378Z,953.48
2024-03-31T06:24:39.365Z,953.50
2024-03-31T06:25:39.350Z,953.49
2024-03-31T06:26:39.342Z,953.44
2024-03-31T06:27:39.329Z,953.39
2024-03-31T06:28:39.320Z,953.41
2024-03-31T06:29:39.292Z,953.40
2024-03-31T06:30:39.296Z,953.40
2024-03-31T06:31:39.267Z,953.42
2024-03-31T06:32:41.042Z,953.43
2024-03-31T06:33:39.238Z,953.46
2024-03-31T06:34:39.239Z,953.47
2024-03-31T06:35:39.215Z,953.51
2024-03-31T06:36:39.201Z,953.57
2024-03-31T06:37:39.253Z,953.62
2024-03-31T06:38:39.183Z,953.59
2024-03-31T06:39:39.178Z,953.51
2024-03-31T06:40:39.146Z,953.49
2024-03-31T06:41:39.131Z,953.44
2024-03-31T06:42:39.121Z,953.43
2024-03-31T06:43:39.112Z,953.43
2024-03-31T06:44:39.093Z,953.42
2024-03-31T06:45:39.078Z,953.44
2024-03-31T06:46:39.069Z,953.48
2024-03-31T06:47:39.066Z,953.46
2024-03-31T06:48:39.042Z,953.65
2024-03-31T06:49:39.027Z,953.54
2024-03-31T06:50:39.015Z,953.56
2024-03-31T06:51:38.996Z,953.56
2024-03-31T06:52:39.001Z,953.51
2024-03-31T06:53:38.986Z,953.42
2024-03-31T06:54:38.969Z,953.34
2024-03-31T06:55:38.946Z,953.32
2024-03-31T06:56:38.937Z,953.34
2024-03-31T06:57:39.043Z,953.30
2024-03-31T06:58:38.928Z,953.35
2024-03-31T06:59:38.894Z,953.34
2024-03-31T07:00:38.887Z,953.43
2024-03-31T07:01:38.869Z,953.40
2024-03-31T07:02:38.856Z,953.46
2024-03-31T07:03:38.843Z,953.43
2024-03-31T07:04:38.830Z,953.48
2024-03-31T07:05:38.817Z,953.40
2024-03-31T07:06:38.803Z,953.38
2024-03-31T07:07:38.810Z,953.33
2024-03-31T07:08:38.777Z,953.38
2024-03-31T07:09:38.792Z,953.50
2024-03-31T07:10:38.763Z,953.46
2024-03-31T07:11:38.736Z,953.42
2024-03-31T07:12:38.723Z,953.44
2024-03-31T07:13:38.792Z,953.49
2024-03-31T07:14:38.715Z,953.30
2024-03-31T07:15:38.688Z,953.30
2024-03-31T07:16:38.669Z,953.29
2024-03-31T07:17:38.660Z,953.34
2024-03-31T07:18:38.640Z,953.37
2024-03-31T07:19:38.672Z,953.25
2024-03-31T07:20:38.613Z,953.25
2024-03-31T07:21:38.601Z,953.29
2024-03-31T07:22:38.590Z,953.24
2024-03-31T07:23:40.486Z,953.18
2024-03-31T07:24:38.581Z,953.34
2024-03-31T07:25:38.564Z,953.21
2024-03-31T07:26:38.605Z,953.30
2024-03-31T07:27:38.648Z,953.36
2024-03-31T07:28:38.610Z,953.31
2024-03-31T07:29:38.660Z,953.35
2024-03-31T07:30:38.480Z,953.18
2024-03-31T07:31:38.471Z,953.15
2024-03-31T07:32:38.458Z,953.23
2024-03-31T07:33:38.445Z,953.15
2024-03-31T07:34:38.427Z,953.16
2024-03-31T07:35:38.420Z,953.10
2024-03-31T07:36:40.389Z,953.28
2024-03-31T07:37:38.388Z,953.31
2024-03-31T07:38:38.385Z,953.06
2024-03-31T07:39:38.377Z,953.00
2024-03-31T07:40:38.343Z,952.98
2024-03-31T07:41:38.355Z,953.03
2024-03-31T07:42:38.330Z,953.00
2024-03-31T07:43:38.308Z,953.04
2024-03-31T07:44:38.293Z,953.14
2024-03-31T07:45:38.301Z,953.07
2024-03-31T07:46:38.267Z,953.05
2024-03-31T07:47:38.257Z,953.17
2024-03-31T07:48:38.254Z,953.15
2024-03-31T07:49:38.248Z,953.06
2024-03-31T07:50:38.229Z,953.12
2024-03-31T07:51:38.202Z,953.16
2024-03-31T07:52:38.203Z,953.25
2024-03-31T07:53:38.175Z,953.20
2024-03-31T07:54:38.160Z,953.14
2024-03-31T07:55:38.149Z,953.02
2024-03-31T07:56:38.134Z,953.12
2024-03-31T07:57:38.138Z,953.06
2024-03-31T07:58:38.107Z,953.15
2024-03-31T07:59:38.095Z,953.17
2024-03-31T08:00:38.079Z,953.21
2024-03-31T08:01:38.070Z,953.23
2024-03-31T08:02:38.053Z,953.21
2024-03-31T08:03:38.047Z,952.97
2024-03-31T08:04:38.028Z,953.08
2024-03-31T08:05:38.027Z,953.06
2024-03-31T08:06:37.999Z,953.07
2024-03-31T08:07:37.989Z,952.95
2024-03-31T08:08:37.986Z,952.93
2024-03-31T08:09:37.972Z,953.01
2024-03-31T08:10:37.954Z,952.98
2024-03-31T08:11:37.938Z,952.97
2024-03-31T08:12:37.975Z,952.99
2024-03-31T08:13:37.936Z,952.94
2024-03-31T08:14:37.896Z,953.04
2024-03-31T08:15:37.886Z,953.04
2024-03-31T08:16:37.875Z,953.09
2024-03-31T08:17:37.860Z,953.00
2024-03-31T08:18:37.838Z,952.98
2024-03-31T08:19:37.832Z,953.06
2024-03-31T08:20:37.822Z,953.14
2024-03-31T08:21:37.808Z,953.06
2024-03-31T08:22:37.804Z,953.24
2024-03-31T08:23:37.794Z,953.10
2024-03-31T08:24:37.776Z,953.34
2024-03-31T08:25:37.891Z,953.14
2024-03-31T08:26:37.737Z,953.18
2024-03-31T08:27:37.724Z,953.15
2024-03-31T08:28:37.713Z,953.23
2024-03-31T08:29:37.709Z,953.17
2024-03-31T08:30:37.719Z,953.23
2024-03-31T08:31:37.681Z,953.15
2024-03-31T08:32:37.668Z,953.11
2024-03-31T08:33:37.653Z,953.13
2024-03-31T08:34:37.630Z,953.10
2024-03-31T08:35:37.622Z,953.02
2024-03-31T08:36:37.613Z,953.01
2024-03-31T08:37:37.595Z,952.97
2024-03-31T08:38:37.580Z,952.99
2024-03-31T08:39:37.569Z,952.98
2024-03-31T08:40:37.556Z,953.02
2024-03-31T08:41:37.543Z,952.89
2024-03-31T08:42:37.528Z,952.93
2024-03-31T08:43:37.515Z,952.97
2024-03-31T08:44:37.513Z,953.00
2024-03-31T08:45:37.501Z,953.03
2024-03-31T08:46:37.476Z,953.01
2024-03-31T08:47:37.525Z,953.01
2024-03-31T08:48:37.481Z,953.15
2024-03-31T08:49:37.439Z,953.15
2024-03-31T08:50:37.425Z,953.15
2024-03-31T08:51:37.432Z,953.16
2024-03-31T08:52:37.412Z,953.19
2024-03-31T08:53:37.387Z,953.10
2024-03-31T08:54:37.400Z,953.18
2024-03-31T08:55:37.362Z,953.17
2024-03-31T08:56:37.347Z,953.23
2024-03-31T08:57:37.339Z,953.26
2024-03-31T08:58:37.321Z,953.32
2024-03-31T08:59:37.311Z,953.29
2024-03-31T09:00:37.297Z,953.26
2024-03-31T09:01:37.294Z,953.34
2024-03-31T09:02:37.269Z,953.28
2024-03-31T09:03:37.266Z,953.25
2024-03-31T09:04:37.245Z,953.31
2024-03-31T09:05:37.235Z,953.27
2024-03-31T09:06:37.223Z,953.28
2024-03-31T09:07:39.418Z,953.26
2024-03-31T09:08:41.332Z,953.25
2024-03-31T09:09:37.182Z,953.24
2024-03-31T09:10:37.223Z,953.24
2024-03-31T09:11:37.158Z,953.24
2024-03-31T09:12:37.143Z,953.24
2024-03-31T09:13:37.144Z,953.20
2024-03-31T09:14:37.121Z,953.24
2024-03-31T09:15:37.107Z,953.28
2024-03-31T09:16:37.095Z,953.34
2024-03-31T09:17:37.106Z,953.26
2024-03-31T09:18:37.066Z,953.21
2024-03-31T09:19:37.059Z,953.22
2024-03-31T09:20:37.049Z,953.23
2024-03-31T09:21:37.032Z,953.22
2024-03-31T09:22:37.015Z,953.16
2024-03-31T09:23:37.005Z,953.16
2024-03-31T09:24:36.986Z,953.17
2024-03-31T09:25:36.985Z,953.12
2024-03-31T09:26:36.966Z,953.07
2024-03-31T09:27:36.955Z,953.09
2024-03-31T09:28:36.957Z,953.14
2024-03-31T09:29:36.928Z,953.04
2024-03-31T09:30:36.914Z,953.12
2024-03-31T09:31:36.907Z,953.05
2024-03-31T09:32:36.896Z,952.96
2024-03-31T09:33:36.887Z,952.93
2024-03-31T09:34:36.863Z,952.94
2024-03-31T09:35:36.853Z,953.05
2024-03-31T09:36:36.843Z,953.06
2024-03-31T09:37:36.826Z,952.98
2024-03-31T09:38:36.815Z,953.12
2024-03-31T09:39:36.802Z,953.04
2024-03-31T09:40:36.787Z,952.99
2024-03-31T09:41:36.779Z,953.03
2024-03-31T09:42:36.760Z,953.12
2024-03-31T09:43:36.751Z,953.08
2024-03-31T09:44:36.737Z,953.07
2024-03-31T09:45:36.725Z,953.12
2024-03-31T09:46:36.712Z,953.09
2024-03-31T09:47:36.704Z,953.18
2024-03-31T09:48:36.687Z,953.07
2024-03-31T09:49:36.696Z,953.08
2024-03-31T09:50:36.671Z,953.13
2024-03-31T09:51:36.656Z,953.15
2024-03-31T09:52:36.642Z,953.09
2024-03-31T09:53:36.632Z,953.15
2024-03-31T09:54:36.619Z,953.07
2024-03-31T09:55:36.611Z,953.00
2024-03-31T09:56:36.595Z,953.11
2024-03-31T09:57:36.586Z,953.00
2024-03-31T09:58:36.572Z,953.01
2024-03-31T09:59:36.563Z,952.88
2024-03-31T10:00:36.599Z,952.83
2024-03-31T10:01:36.540Z,952.81
2024-03-31T10:02:36.526Z,952.94
2024-03-31T10:03:36.524Z,953.02
2024-03-31T10:04:36.502Z,953.06
2024-03-31T10:05:36.507Z,953.04
2024-03-31T10:06:36.480Z,953.05
2024-03-31T10:07:36.471Z,953.04
2024-03-31T10:08:36.460Z,953.03
2024-03-31T10:09:36.448Z,953.08
2024-03-31T10:10:36.437Z,953.03
2024-03-31T10:11:36.429Z,953.14
2024-03-31T10:12:36.412Z,953.06
2024-03-31T10:13:38.535Z,953.11
2024-03-31T10:14:36.395Z,953.06
2024-03-31T10:15:36.384Z,953.11
2024-03-31T10:16:36.381Z,953.04
2024-03-31T10:17:36.362Z,953.12
2024-03-31T10:18:36.347Z,953.04
2024-03-31T10:19:36.335Z,953.06
2024-03-31T10:20:36.328Z,953.07
2024-03-31T10:21:36.326Z,953.06
2024-03-31T10:22:36.300Z,953.02
2024-03-31T10:23:36.293Z,953.05
2024-03-31T10:24:36.293Z,953.05
2024-03-31T10:25:36.270Z,953.07
2024-03-31T10:26:36.264Z,953.09
2024-03-31T10:27:36.245Z,953.17
2024-03-31T10:28:36.234Z,953.17
2024-03-31T10:29:36.231Z,953.15
2024-03-31T10:30:36.210Z,953.09
2024-03-31T10:31:36.205Z,953.03
2024-03-31T10:32:36.220Z,953.03
2024-03-31T10:33:41.024Z,953.03
2024-03-31T10:34:36.169Z,953.02
2024-03-31T10:35:36.158Z,952.99
2024-03-31T10:36:36.149Z,952.98
2024-03-31T10:37:36.143Z,953.01
2024-03-31T10:38:36.171Z,953.01
2024-03-31T10:39:36.122Z,952.98
2024-03-31T10:40:36.103Z,952.99
2024-03-31T10:41:37.336Z,953.04
2024-03-31T10:42:36.085Z,953.01
2024-03-31T10:43:36.076Z,952.97
2024-03-31T10:44:36.059Z,952.91
2024-03-31T10:45:36.050Z,952.94
2024-03-31T10:46:36.036Z,952.85
2024-03-31T10:47:36.027Z,952.86
2024-03-31T10:48:36.016Z,952.79
2024-03-31T10:49:36.009Z,952.85
2024-03-31T10:50:35.995Z,952.88
2024-03-31T10:51:35.984Z,952.89
2024-03-31T10:52:35.976Z,952.87
2024-03-31T10:53:35.981Z,952.85
2024-03-31T10:54:35.957Z,952.86
2024-03-31T10:55:35.964Z,952.87
2024-03-31T10:56:40.293Z,952.81
2024-03-31T10:57:35.924Z,952.85
2024-03-31T10:58:35.911Z,952.87
2024-03-31T10:59:35.906Z,952.88
2024-03-31T11:00:35.891Z,952.86
2024-03-31T11:01:35.885Z,952.87
2024-03-31T11:02:35.874Z,952.85
2024-03-31T11:03:35.867Z,952.89
2024-03-31T11:04:35.856Z,952.85
2024-03-31T11:05:35.854Z,952.84
2024-03-31T11:06:35.831Z,952.87
2024-03-31T11:07:35.828Z,952.90
2024-03-31T11:08:35.811Z,952.95
2024-03-31T11:09:35.813Z,952.95
2024-03-31T11:10:35.790Z,952.92
2024-03-31T11:11:35.784Z,952.94
2024-03-31T11:12:35.773Z,952.96
2024-03-31T11:13:35.762Z,952.80
2024-03-31T11:14:35.752Z,952.93
2024-03-31T11:15:35.787Z,952.82
2024-03-31T11:16:35.739Z,952.72
2024-03-31T11:17:35.728Z,952.76
2024-03-31T11:18:35.713Z,952.65
2024-03-31T11:19:35.706Z,952.60
2024-03-31T11:20:35.693Z,952.60
2024-03-31T11:21:35.691Z,952.55
2024-03-31T11:22:35.676Z,952.46
2024-03-31T11:23:35.669Z,952.46
2024-03-31T11:24:35.655Z,952.47
2024-03-31T11:25:35.667Z,952.41
2024-03-31T11:26:35.638Z,952.38
2024-03-31T11:27:35.635Z,952.35
2024-03-31T11:28:35.620Z,952.27
2024-03-31T11:29:35.608Z,952.26
2024-03-31T11:30:35.603Z,952.30
2024-03-31T11:31:35.591Z,952.33
2024-03-31T11:32:35.584Z,952.28
2024-03-31T11:33:35.578Z,952.30
2024-03-31T11:34:35.581Z,952.26
2024-03-31T11:35:35.567Z,952.19
2024-03-31T11:36:35.553Z,952.15
2024-03-31T11:37:35.562Z,952.13
2024-03-31T11:38:35.529Z,952.13
2024-03-31T11:39:35.527Z,952.12
2024-03-31T11:40:35.538Z,952.14
2024-03-31T11:41:35.513Z,952.16
2024-03-31T11:42:36.296Z,952.23
2024-03-31T11:43:35.486Z,952.25
2024-03-31T11:44:35.477Z,952.26
2024-03-31T11:45:35.464Z,952.31
2024-03-31T11:46:35.463Z,952.31
2024-03-31T11:47:35.501Z,952.30
2024-03-31T11:48:35.447Z,952.36
2024-03-31T11:49:35.429Z,952.40
2024-03-31T11:50:35.421Z,952.43
2024-03-31T11:51:35.410Z,952.53
2024-03-31T11:52:35.406Z,952.61
2024-03-31T11:53:35.393Z,952.64
2024-03-31T11:54:35.392Z,952.66
2024-03-31T11:55:35.381Z,952.64
2024-03-31T11:56:35.370Z,952.64
2024-03-31T11:57:35.370Z,952.61
2024-03-31T11:58:35.381Z,952.55
2024-03-31T11:59:35.340Z,952.59
2024-03-31T12:00:35.333Z,952.62
2024-03-31T12:01:35.326Z,952.64
2024-03-31T12:02:35.317Z,952.69
2024-03-31T12:03:35.322Z,952.74
2024-03-31T12:04:35.302Z,952.77
2024-03-31T12:05:35.289Z,952.71
2024-03-31T12:06:35.283Z,952.72
2024-03-31T12:07:35.274Z,952.67
2024-03-31T12:08:46.108Z,952.67
2024-03-31T12:10:35.280Z,952.66
2024-03-31T12:11:35.253Z,952.65
2024-03-31T12:12:35.241Z,952.66
2024-03-31T12:13:35.238Z,952.66
2024-03-31T12:14:35.220Z,952.64
2024-03-31T12:15:35.216Z,952.56
2024-03-31T12:16:35.203Z,952.54
2024-03-31T12:17:35.200Z,952.49
2024-03-31T12:18:35.191Z,952.51
2024-03-31T12:19:35.196Z,952.54
2024-03-31T12:20:35.178Z,952.62
2024-03-31T12:21:35.171Z,952.62
2024-03-31T12:22:35.163Z,952.63
2024-03-31T12:23:35.163Z,952.57
2024-03-31T12:24:35.158Z,952.45
2024-03-31T12:25:35.144Z,952.44
2024-03-31T12:26:35.134Z,952.48
2024-03-31T12:27:35.136Z,952.46
2024-03-31T12:28:35.172Z,952.45
2024-03-31T12:29:35.127Z,952.53
2024-03-31T12:30:35.113Z,952.47
2024-03-31T12:31:35.104Z,952.52
2024-03-31T12:32:35.093Z,952.52